Time;durP1;ratioP1;P1;durP2;ratioP2;P2;SDS_P1;SDS_P2;PMS_P1;PMS_P2;Temp;Humidity;BMP_temperature;BMP_pressure;BME280_temperature;BME280_humidity;BME280_pressure;Samples;Min_cycle;Max_cycle;Signal;HPM_P1;HPM_P2
2023/02/11 00:00:23;;;;;;;20.80;15.50;;;9.20;97.70;;;;;;5057595;28;20481;-82
2023/02/11 00:02:50;;;;;;;20.57;15.73;;;9.00;98.00;;;;;;5047298;28;20471;-80
2023/02/11 00:05:17;;;;;;;18.33;14.80;;;9.20;98.40;;;;;;5046534;28;20504;-81
2023/02/11 00:07:44;;;;;;;22.80;16.63;;;9.20;98.20;;;;;;5046430;28;20506;-80
2023/02/11 00:10:10;;;;;;;22.73;17.37;;;9.00;98.20;;;;;;5046078;28;20464;-82
2023/02/11 00:12:38;;;;;;;22.23;15.90;;;9.00;98.50;;;;;;5057647;28;20451;-81
2023/02/11 00:15:06;;;;;;;19.77;15.50;;;9.00;98.60;;;;;;5051023;28;20490;-82
2023/02/11 00:17:33;;;;;;;16.87;13.90;;;8.90;98.60;;;;;;5066505;28;20519;-80
2023/02/11 00:20:00;;;;;;;17.47;14.73;;;9.10;98.70;;;;;;5057622;28;20540;-80
2023/02/11 00:22:27;;;;;;;18.37;14.13;;;9.10;98.40;;;;;;5048552;28;20458;-81
2023/02/11 00:24:55;;;;;;;19.30;14.27;;;8.90;98.50;;;;;;5045524;28;20840;-80
2023/02/11 00:27:23;;;;;;;21.27;14.43;;;8.80;98.70;;;;;;5043408;28;21403;-81
2023/02/11 00:29:50;;;;;;;21.93;13.83;;;8.70;98.90;;;;;;5041863;28;20555;-81
2023/02/11 00:32:17;;;;;;;17.13;14.27;;;9.10;99.00;;;;;;5045452;28;20516;-81
2023/02/11 00:34:43;;;;;;;19.27;14.27;;;9.50;98.30;;;;;;5048857;28;21803;-81
2023/02/11 00:37:11;;;;;;;20.13;14.00;;;9.30;97.80;;;;;;5053316;28;20903;-81
2023/02/11 00:39:38;;;;;;;17.90;14.27;;;9.40;98.00;;;;;;5046481;28;20443;-82
2023/02/11 00:42:05;;;;;;;18.03;14.53;;;9.50;97.70;;;;;;5042665;28;20499;-82
2023/02/11 00:44:32;;;;;;;18.10;13.30;;;9.20;97.60;;;;;;5041823;28;20492;-81
2023/02/11 00:46:59;;;;;;;17.07;13.17;;;9.00;98.00;;;;;;5038064;28;20472;-79
2023/02/11 00:49:26;;;;;;;19.53;12.30;;;8.90;98.60;;;;;;5040534;28;20464;-80
2023/02/11 00:51:53;;;;;;;15.47;12.87;;;8.80;98.80;;;;;;5049477;28;20785;-81
2023/02/11 00:54:20;;;;;;;17.93;12.77;;;8.70;99.10;;;;;;5041553;28;20479;-82
2023/02/11 00:56:48;;;;;;;19.93;12.00;;;8.70;99.50;;;;;;5040239;28;20563;-81
2023/02/11 00:59:15;;;;;;;14.73;12.53;;;8.80;99.50;;;;;;5039310;28;21043;-80
2023/02/11 01:01:42;;;;;;;14.97;12.27;;;8.70;99.40;;;;;;5042399;28;20475;-81
2023/02/11 01:04:09;;;;;;;20.73;13.10;;;8.60;99.60;;;;;;5042835;28;20496;-80
2023/02/11 01:06:36;;;;;;;16.77;12.47;;;8.50;99.90;;;;;;5037883;28;20472;-82
2023/02/11 01:09:03;;;;;;;17.63;12.67;;;8.40;99.90;;;;;;5040721;28;20464;-82
2023/02/11 01:11:30;;;;;;;20.73;12.27;;;8.40;99.90;;;;;;5042754;28;20485;-82
2023/02/11 01:13:57;;;;;;;20.27;12.40;;;8.40;99.90;;;;;;5038651;28;20468;-80
2023/02/11 01:16:25;;;;;;;15.47;12.90;;;8.40;99.90;;;;;;5038002;28;20491;-81
2023/02/11 01:18:52;;;;;;;15.90;11.80;;;8.40;99.90;;;;;;5039332;28;20467;-81
2023/02/11 01:21:19;;;;;;;16.83;13.03;;;8.40;99.90;;;;;;5042484;28;20480;-82
2023/02/11 01:23:46;;;;;;;17.77;12.10;;;8.40;99.90;;;;;;5038900;28;20478;-80
2023/02/11 01:26:13;;;;;;;14.40;12.17;;;8.40;99.90;;;;;;5041041;28;20985;-82
2023/02/11 01:28:40;;;;;;;17.07;12.13;;;8.40;99.90;;;;;;5036262;28;20471;-80
2023/02/11 01:31:07;;;;;;;16.50;12.33;;;8.30;99.90;;;;;;5041198;28;20490;-82
2023/02/11 01:33:34;;;;;;;17.47;12.80;;;8.30;99.90;;;;;;5038476;28;20973;-80
2023/02/11 01:36:03;;;;;;;17.20;13.73;;;8.30;99.90;;;;;;5039887;28;20532;-81
2023/02/11 01:38:31;;;;;;;20.33;12.60;;;8.30;99.90;;;;;;5039122;28;20516;-80
2023/02/11 01:41:01;;;;;;;15.27;13.50;;;8.30;99.90;;;;;;5040215;28;20467;-81
2023/02/11 01:43:32;;;;;;;18.17;13.30;;;8.20;99.90;;;;;;5042076;28;20484;-80
2023/02/11 01:46:29;;;;;;;17.87;13.77;;;8.30;99.90;;;;;;5040624;28;20451;-83
2023/02/11 01:49:06;;;;;;;16.60;13.87;;;8.30;99.90;;;;;;5040069;28;21937;-81
2023/02/11 01:51:40;;;;;;;16.73;13.07;;;8.30;99.90;;;;;;5040508;28;20499;-80
2023/02/11 01:57:23;;;;;;;17.17;13.07;;;8.20;99.90;;;;;;5012960;28;20534;-81
2023/02/11 02:00:11;;;;;;;22.23;15.00;;;8.20;99.90;;;;;;5043232;28;20461;-80
2023/02/11 02:02:49;;;;;;;25.80;15.17;;;8.30;99.90;;;;;;5043174;28;21131;-82
2023/02/11 02:05:34;;;;;;;17.00;14.13;;;8.30;99.90;;;;;;5042643;28;20479;-81
2023/02/11 02:08:28;;;;;;;17.23;13.27;;;8.30;99.90;;;;;;5041416;28;20448;-81
2023/02/11 02:10:57;;;;;;;19.90;14.07;;;8.20;99.90;;;;;;5043702;28;20480;-82
2023/02/11 02:13:25;;;;;;;22.83;13.73;;;8.20;99.90;;;;;;5042210;28;20573;-80
2023/02/11 02:15:59;;;;;;;23.73;14.83;;;8.20;99.90;;;;;;5045343;28;20483;-80
2023/02/11 02:18:35;;;;;;;19.87;14.33;;;8.20;99.90;;;;;;5041432;28;20459;-80
2023/02/11 02:21:30;;;;;;;18.57;15.00;;;8.30;99.90;;;;;;5062002;28;20460;-81
2023/02/11 02:24:15;;;;;;;19.63;14.03;;;8.30;99.90;;;;;;5043260;28;20479;-81
2023/02/11 02:26:42;;;;;;;22.63;15.93;;;8.20;99.90;;;;;;5043144;28;20463;-82
2023/02/11 02:29:37;;;;;;;21.40;15.40;;;8.20;99.90;;;;;;5045383;28;20552;-82
2023/02/11 02:32:22;;;;;;;20.40;13.53;;;8.20;99.90;;;;;;5044279;28;20478;-83
2023/02/11 02:35:01;;;;;;;21.90;15.10;;;8.30;99.90;;;;;;5043976;28;20788;-81
2023/02/11 02:38:00;;;;;;;23.07;15.13;;;8.30;99.90;;;;;;5042648;28;20467;-80
2023/02/11 02:40:33;;;;;;;24.33;15.00;;;8.20;99.90;;;;;;5044271;28;20467;-80
2023/02/11 02:43:01;;;;;;;21.37;15.13;;;8.20;99.90;;;;;;5042580;28;20451;-79
2023/02/11 02:45:28;;;;;;;22.97;15.80;;;8.20;99.90;;;;;;5048568;28;20537;-80
2023/02/11 02:47:57;;;;;;;22.97;15.63;;;8.10;99.90;;;;;;5049385;28;20459;-80
2023/02/11 02:50:29;;;;;;;22.33;15.80;;;8.10;99.90;;;;;;5043128;28;20465;-81
2023/02/11 02:53:11;;;;;;;24.30;14.70;;;8.10;99.90;;;;;;5039490;28;20499;-81
2023/02/11 02:55:58;;;;;;;22.90;15.63;;;8.00;99.90;;;;;;5055446;28;20451;-81
2023/02/11 02:59:07;;;;;;;20.10;14.63;;;8.00;99.90;;;;;;5060355;28;20545;-82
2023/02/11 03:02:05;;;;;;;22.43;14.97;;;7.90;99.90;;;;;;5050840;28;20939;-82
2023/02/11 03:04:49;;;;;;;20.87;15.00;;;7.90;99.90;;;;;;5061592;28;20479;-82
2023/02/11 03:07:48;;;;;;;27.47;15.33;;;7.80;99.90;;;;;;5043326;28;20459;-81
2023/02/11 03:10:23;;;;;;;20.60;15.10;;;7.80;99.90;;;;;;5040540;28;20534;-82
2023/02/11 03:12:54;;;;;;;24.40;16.00;;;7.90;99.90;;;;;;5048744;28;20494;-82
2023/02/11 03:15:23;;;;;;;31.97;15.87;;;7.90;99.90;;;;;;5044694;28;20456;-82
2023/02/11 03:17:53;;;;;;;24.03;17.07;;;8.10;99.90;;;;;;5051796;28;20469;-82
2023/02/11 03:20:22;;;;;;;27.50;16.83;;;8.00;99.90;;;;;;5042057;28;20606;-82
2023/02/11 03:23:36;;;;;;;25.87;17.47;;;7.90;99.90;;;;;;5039835;28;20467;-82
2023/02/11 03:26:20;;;;;;;20.87;16.13;;;8.30;99.90;;;;;;5023485;28;20468;-82
2023/02/11 03:28:57;;;;;;;27.47;16.93;;;8.00;99.90;;;;;;5041403;28;20486;-83
2023/02/11 03:31:39;;;;;;;33.37;19.13;;;8.00;99.90;;;;;;5048678;28;20468;-83
2023/02/11 03:34:13;;;;;;;21.37;16.80;;;8.10;99.90;;;;;;5043843;28;20490;-81
2023/02/11 03:36:44;;;;;;;21.87;15.67;;;8.00;99.90;;;;;;5044471;28;20758;-83
2023/02/11 03:39:20;;;;;;;23.70;15.40;;;8.00;99.90;;;;;;5043901;28;20561;-81
2023/02/11 03:41:48;;;;;;;25.83;15.73;;;7.90;99.90;;;;;;5044549;28;20463;-82
2023/02/11 03:44:17;;;;;;;25.60;16.70;;;7.90;99.90;;;;;;5041379;28;20499;-82
2023/02/11 03:46:49;;;;;;;23.40;17.00;;;7.90;99.90;;;;;;5044368;28;20469;-81
2023/02/11 03:49:21;;;;;;;21.07;15.33;;;7.80;99.90;;;;;;5045414;28;20495;-80
2023/02/11 03:51:50;;;;;;;20.53;15.43;;;7.80;99.90;;;;;;5046677;28;20476;-81
2023/02/11 03:54:23;;;;;;;24.67;15.93;;;7.80;99.90;;;;;;5048888;28;20476;-82
2023/02/11 03:56:53;;;;;;;22.20;15.70;;;7.80;99.90;;;;;;5047139;28;20569;-81
2023/02/11 03:59:20;;;;;;;22.10;15.90;;;7.70;99.90;;;;;;5051682;28;20459;-82
2023/02/11 04:01:47;;;;;;;23.20;15.77;;;7.70;99.90;;;;;;5041269;28;20463;-82
2023/02/11 04:04:15;;;;;;;20.17;14.13;;;7.70;99.90;;;;;;5047896;28;20606;-82
2023/02/11 04:06:45;;;;;;;18.53;14.33;;;7.90;99.90;;;;;;5035635;28;20574;-82
2023/02/11 04:09:12;;;;;;;23.33;15.77;;;7.80;99.90;;;;;;5026624;28;20823;-82
2023/02/11 04:11:39;;;;;;;24.20;16.00;;;7.80;99.90;;;;;;5042186;28;20487;-81
2023/02/11 04:14:07;;;;;;;23.63;14.60;;;7.80;99.90;;;;;;5042522;28;20757;-82
2023/02/11 04:16:34;;;;;;;20.23;14.80;;;8.00;99.90;;;;;;5043811;28;20507;-81
2023/02/11 04:19:01;;;;;;;23.87;15.73;;;8.20;99.90;;;;;;5042897;28;20460;-81
2023/02/11 04:21:28;;;;;;;19.87;15.33;;;8.20;99.90;;;;;;5043097;28;20466;-82
2023/02/11 04:23:55;;;;;;;22.70;15.77;;;8.10;99.90;;;;;;5043556;28;20487;-81
2023/02/11 04:26:23;;;;;;;20.97;16.50;;;8.00;99.90;;;;;;5044288;28;21054;-81
2023/02/11 04:28:50;;;;;;;22.87;16.10;;;8.00;99.90;;;;;;5051443;28;20521;-81
2023/02/11 04:31:18;;;;;;;22.13;15.30;;;7.90;99.90;;;;;;5044506;28;20468;-81
2023/02/11 04:33:45;;;;;;;29.53;16.70;;;7.90;99.90;;;;;;5044697;28;20480;-80
2023/02/11 04:36:13;;;;;;;23.77;15.70;;;8.00;99.90;;;;;;5044794;28;20463;-81
2023/02/11 04:38:40;;;;;;;23.00;14.40;;;8.00;99.90;;;;;;5047410;28;20468;-81
2023/02/11 04:41:08;;;;;;;18.70;13.77;;;7.90;99.90;;;;;;5041779;28;20479;-82
2023/02/11 04:43:35;;;;;;;25.60;15.17;;;7.90;99.90;;;;;;5044979;28;20473;-81
2023/02/11 04:46:02;;;;;;;25.30;15.97;;;8.40;99.90;;;;;;5040383;28;20487;-81
2023/02/11 04:48:29;;;;;;;20.13;14.80;;;8.40;99.90;;;;;;5043868;28;20443;-82
2023/02/11 04:50:57;;;;;;;24.53;15.93;;;8.20;99.90;;;;;;5044125;28;20449;-81
2023/02/11 04:53:23;;;;;;;20.70;15.20;;;8.50;99.90;;;;;;5047717;28;20571;-81
2023/02/11 04:55:50;;;;;;;23.70;14.13;;;8.70;99.90;;;;;;5060669;28;20447;-81
2023/02/11 04:58:19;;;;;;;24.50;15.27;;;8.50;99.90;;;;;;5070823;28;20447;-81
2023/02/11 05:00:47;;;;;;;19.20;15.47;;;8.30;99.90;;;;;;5072695;28;20460;-80
2023/02/11 05:03:14;;;;;;;26.37;16.40;;;8.30;99.90;;;;;;5065057;28;21039;-81
2023/02/11 05:05:42;;;;;;;25.00;15.53;;;8.60;99.90;;;;;;5048914;28;20470;-81
2023/02/11 05:08:10;;;;;;;23.90;15.27;;;8.30;99.90;;;;;;5044160;28;20440;-81
2023/02/11 05:10:37;;;;;;;35.00;15.23;;;8.20;99.90;;;;;;5046653;28;22551;-81
2023/02/11 05:13:04;;;;;;;21.07;15.00;;;8.00;99.90;;;;;;5047036;28;20475;-82
2023/02/11 05:15:31;;;;;;;22.87;15.60;;;8.00;99.90;;;;;;5050040;28;20463;-82
2023/02/11 05:17:58;;;;;;;23.40;18.17;;;8.10;99.90;;;;;;5047083;28;20528;-81
2023/02/11 05:20:24;;;;;;;19.07;14.17;;;8.00;99.90;;;;;;5041704;28;20472;-81
2023/02/11 05:22:52;;;;;;;25.13;14.83;;;8.00;99.90;;;;;;5045649;28;20453;-82
2023/02/11 05:25:19;;;;;;;20.40;15.03;;;8.10;99.90;;;;;;5043035;28;20479;-79
2023/02/11 05:27:46;;;;;;;20.80;15.20;;;8.50;99.90;;;;;;5044823;28;20823;-81
2023/02/11 05:30:14;;;;;;;21.30;15.30;;;8.30;99.90;;;;;;5045755;28;20468;-80
2023/02/11 05:32:40;;;;;;;20.50;14.47;;;8.20;99.90;;;;;;5050870;28;20557;-81
2023/02/11 05:35:08;;;;;;;19.43;14.83;;;8.10;99.90;;;;;;5050193;28;20594;-81
2023/02/11 05:37:35;;;;;;;19.17;14.67;;;8.00;99.90;;;;;;5051453;28;20455;-80
2023/02/11 05:40:03;;;;;;;19.90;14.50;;;7.90;99.90;;;;;;5055116;28;20538;-81
2023/02/11 05:42:30;;;;;;;28.43;16.57;;;7.90;99.90;;;;;;5070029;28;20459;-81
2023/02/11 05:44:56;;;;;;;21.73;15.80;;;7.90;99.90;;;;;;5062262;28;20483;-80
2023/02/11 05:47:24;;;;;;;24.03;15.23;;;7.90;99.90;;;;;;5054755;28;20476;-81
2023/02/11 05:49:52;;;;;;;21.00;15.63;;;7.90;99.90;;;;;;5054256;28;20540;-81
2023/02/11 05:52:21;;;;;;;23.10;15.73;;;7.90;99.90;;;;;;5055886;28;21849;-81
2023/02/11 05:54:49;;;;;;;24.30;15.30;;;7.90;99.90;;;;;;5060963;28;20570;-80
2023/02/11 05:57:17;;;;;;;21.53;16.00;;;7.90;99.90;;;;;;5059029;28;20462;-82
2023/02/11 05:59:44;;;;;;;23.20;15.60;;;7.80;99.90;;;;;;5068792;28;20485;-81
2023/02/11 06:02:11;;;;;;;24.83;18.00;;;7.90;99.90;;;;;;5069387;28;20811;-79
2023/02/11 06:04:38;;;;;;;23.30;14.97;;;7.90;99.90;;;;;;5076648;28;20795;-80
2023/02/11 06:07:06;;;;;;;23.13;14.57;;;7.90;99.90;;;;;;5071832;28;21411;-80
2023/02/11 06:09:33;;;;;;;25.20;15.77;;;7.90;99.90;;;;;;5070993;28;20453;-80
2023/02/11 06:12:00;;;;;;;27.63;16.57;;;8.00;99.90;;;;;;5067369;28;20540;-81
2023/02/11 06:14:27;;;;;;;25.07;17.13;;;7.90;99.90;;;;;;5070712;28;20570;-82
2023/02/11 06:16:54;;;;;;;22.13;15.13;;;7.90;99.90;;;;;;5058059;28;20884;-81
2023/02/11 06:19:22;;;;;;;20.47;15.27;;;7.90;99.90;;;;;;5049501;28;20456;-81
2023/02/11 06:21:49;;;;;;;25.63;15.60;;;7.90;99.90;;;;;;5046696;28;20459;-81
2023/02/11 06:24:16;;;;;;;27.80;16.83;;;7.90;99.90;;;;;;5045415;28;20464;-81
2023/02/11 06:26:58;;;;;;;24.73;16.27;;;7.90;99.90;;;;;;5045886;28;20448;-82
2023/02/11 06:29:25;;;;;;;24.67;15.17;;;7.90;99.90;;;;;;5045826;28;20482;-82
2023/02/11 06:31:52;;;;;;;24.90;15.17;;;7.90;99.90;;;;;;5047542;28;20981;-83
2023/02/11 06:34:20;;;;;;;21.43;15.40;;;8.00;99.90;;;;;;5050579;28;20510;-80
2023/02/11 06:36:47;;;;;;;30.67;16.03;;;8.10;99.90;;;;;;5042913;28;21826;-80
2023/02/11 06:39:14;;;;;;;27.00;17.37;;;8.10;99.90;;;;;;5046643;28;20442;-82
2023/02/11 06:41:40;;;;;;;22.27;16.60;;;8.10;99.90;;;;;;5041870;28;20502;-80
2023/02/11 06:44:09;;;;;;;22.30;17.10;;;8.10;99.90;;;;;;5041771;28;20488;-80
2023/02/11 06:46:35;;;;;;;21.83;16.00;;;8.10;99.90;;;;;;5043014;28;20541;-81
2023/02/11 06:49:02;;;;;;;31.60;16.97;;;8.10;99.90;;;;;;5042295;28;21237;-81
2023/02/11 06:51:29;;;;;;;25.33;16.67;;;8.10;99.90;;;;;;5039517;28;20448;-82
2023/02/11 06:53:56;;;;;;;23.40;16.37;;;8.00;99.90;;;;;;5038595;28;20487;-81
2023/02/11 06:56:26;;;;;;;21.73;15.83;;;8.00;99.90;;;;;;5038854;28;20471;-81
2023/02/11 06:58:56;;;;;;;28.40;16.63;;;7.90;99.90;;;;;;5043201;28;20846;-82
2023/02/11 07:01:24;;;;;;;23.60;16.00;;;8.00;99.90;;;;;;5044352;28;20456;-80
2023/02/11 07:03:52;;;;;;;23.20;15.17;;;7.90;99.90;;;;;;5048203;28;20731;-82
2023/02/11 07:06:23;;;;;;;23.80;17.70;;;7.90;99.90;;;;;;5045154;28;20471;-82
2023/02/11 07:08:50;;;;;;;30.40;17.00;;;8.00;99.90;;;;;;5044054;28;20456;-81
2023/02/11 07:11:24;;;;;;;25.53;16.33;;;8.00;99.90;;;;;;5045977;28;20463;-83
2023/02/11 07:13:53;;;;;;;28.83;17.60;;;8.00;99.90;;;;;;5047491;28;20484;-82
2023/02/11 07:16:20;;;;;;;24.73;17.07;;;8.00;99.90;;;;;;5049309;28;20478;-82
2023/02/11 07:18:48;;;;;;;21.90;15.40;;;8.00;99.90;;;;;;5063392;28;20443;-82
2023/02/11 07:21:18;;;;;;;23.60;15.50;;;8.00;99.90;;;;;;5067156;28;20435;-82
2023/02/11 07:23:45;;;;;;;22.23;15.53;;;8.00;99.90;;;;;;5077008;28;20467;-81
2023/02/11 07:26:15;;;;;;;24.93;16.20;;;8.00;99.90;;;;;;5076345;28;20477;-83
2023/02/11 07:28:43;;;;;;;28.57;16.30;;;8.00;99.90;;;;;;5090622;28;20475;-82
2023/02/11 07:31:12;;;;;;;22.93;15.73;;;8.00;99.90;;;;;;5069790;28;20465;-81
2023/02/11 07:33:39;;;;;;;22.90;14.43;;;8.00;99.90;;;;;;5049568;28;20484;-81
2023/02/11 07:36:08;;;;;;;27.67;17.03;;;8.00;99.90;;;;;;5046059;28;20479;-80
2023/02/11 07:38:36;;;;;;;22.63;15.07;;;8.10;99.90;;;;;;5053408;28;20463;-80
2023/02/11 07:41:05;;;;;;;24.10;16.00;;;8.10;99.90;;;;;;5050933;28;20529;-81
2023/02/11 07:43:34;;;;;;;27.60;16.80;;;8.10;99.90;;;;;;5043384;28;20464;-81
2023/02/11 07:46:06;;;;;;;25.17;16.67;;;8.10;99.90;;;;;;5044474;28;20488;-81
2023/02/11 07:48:33;;;;;;;23.10;15.70;;;8.30;99.90;;;;;;5045938;28;20936;-80
2023/02/11 07:51:24;;;;;;;27.30;15.83;;;8.20;99.90;;;;;;5044081;28;20460;-81
2023/02/11 07:53:52;;;;;;;28.43;16.13;;;8.10;99.90;;;;;;5043904;28;20874;-82
2023/02/11 07:56:20;;;;;;;26.53;16.33;;;8.10;99.90;;;;;;5041602;28;20468;-80
2023/02/11 07:58:47;;;;;;;22.20;15.80;;;8.00;99.90;;;;;;5044816;28;20934;-80
2023/02/11 08:01:25;;;;;;;24.10;16.00;;;8.00;99.90;;;;;;5042241;28;20537;-81
2023/02/11 08:03:57;;;;;;;25.67;17.20;;;8.00;99.90;;;;;;5041557;28;20526;-81
2023/02/11 08:06:27;;;;;;;24.93;15.10;;;8.00;99.90;;;;;;5050875;28;20505;-80
2023/02/11 08:08:54;;;;;;;23.73;16.40;;;8.00;99.90;;;;;;5043570;28;22539;-81
2023/02/11 08:11:24;;;;;;;25.40;16.80;;;8.00;99.90;;;;;;5043772;28;20483;-83
2023/02/11 08:13:52;;;;;;;27.47;18.30;;;8.10;99.90;;;;;;5045763;28;20480;-79
2023/02/11 08:16:26;;;;;;;28.40;16.90;;;8.20;99.90;;;;;;5045124;28;20496;-81
2023/02/11 08:18:56;;;;;;;20.63;15.63;;;8.10;99.90;;;;;;5042827;28;20440;-80
2023/02/11 08:21:23;;;;;;;24.53;16.23;;;8.10;99.90;;;;;;5044239;28;20456;-81
2023/02/11 08:23:51;;;;;;;30.37;15.93;;;8.10;99.90;;;;;;5042300;28;20514;-81
2023/02/11 08:26:25;;;;;;;27.90;15.93;;;8.10;99.90;;;;;;5055905;28;20460;-82
2023/02/11 08:28:54;;;;;;;27.93;16.97;;;8.10;99.90;;;;;;5066709;28;20460;-83
2023/02/11 08:31:24;;;;;;;24.80;16.63;;;8.10;99.90;;;;;;5064489;28;20578;-81
2023/02/11 08:33:53;;;;;;;27.90;16.83;;;8.10;99.90;;;;;;5057147;28;20476;-81
2023/02/11 08:36:23;;;;;;;23.83;15.27;;;8.10;99.90;;;;;;5050776;28;20463;-80
2023/02/11 08:38:55;;;;;;;27.53;16.23;;;8.10;99.90;;;;;;5045632;28;20569;-80
2023/02/11 08:41:37;;;;;;;24.97;15.43;;;8.10;99.90;;;;;;5046595;28;20445;-82
2023/02/11 08:44:05;;;;;;;26.60;16.17;;;8.20;99.90;;;;;;5049044;28;20491;-82
2023/02/11 08:46:32;;;;;;;25.03;15.13;;;8.10;99.90;;;;;;5048454;28;20494;-82
2023/02/11 08:49:00;;;;;;;25.30;17.63;;;8.10;99.90;;;;;;5047799;28;20511;-82
2023/02/11 08:51:30;;;;;;;26.63;17.57;;;8.10;99.90;;;;;;5044796;28;20501;-82
2023/02/11 08:53:57;;;;;;;24.77;16.87;;;8.10;99.90;;;;;;5042486;28;20591;-80
2023/02/11 08:56:26;;;;;;;25.80;16.63;;;8.10;99.90;;;;;;5044810;28;20468;-79
2023/02/11 08:58:54;;;;;;;25.80;17.63;;;8.10;99.90;;;;;;5044147;28;20476;-80
2023/02/11 09:01:29;;;;;;;22.73;15.17;;;8.10;99.90;;;;;;5046200;28;20878;-81
2023/02/11 09:03:57;;;;;;;23.40;14.87;;;8.10;99.90;;;;;;5043910;28;20479;-81
2023/02/11 09:06:25;;;;;;;27.17;16.37;;;8.20;99.90;;;;;;5044172;28;20619;-82
2023/02/11 09:08:55;;;;;;;19.93;15.17;;;8.20;99.90;;;;;;5044684;28;20444;-80
2023/02/11 09:11:32;;;;;;;28.20;16.50;;;8.20;99.90;;;;;;5045482;28;20512;-80
2023/02/11 09:14:01;;;;;;;25.03;16.70;;;8.20;99.90;;;;;;5043212;28;20495;-81
2023/02/11 09:16:30;;;;;;;26.27;16.97;;;8.20;99.90;;;;;;5041956;28;20551;-82
2023/02/11 09:18:59;;;;;;;26.17;14.47;;;8.20;99.90;;;;;;5046499;28;20831;-81
2023/02/11 09:21:28;;;;;;;23.83;16.57;;;8.20;99.90;;;;;;5053843;28;20455;-80
2023/02/11 09:23:56;;;;;;;21.03;15.20;;;8.20;99.90;;;;;;5046639;28;20558;-85
2023/02/11 09:26:27;;;;;;;24.80;15.27;;;8.20;99.90;;;;;;5050206;28;20690;-80
2023/02/11 09:28:54;;;;;;;23.40;13.60;;;8.20;99.90;;;;;;5044065;28;20919;-82
2023/02/11 09:31:24;;;;;;;24.40;15.30;;;8.20;99.90;;;;;;5043754;28;20463;-82
2023/02/11 09:33:56;;;;;;;22.33;16.30;;;8.20;99.90;;;;;;5042994;28;20541;-82
2023/02/11 09:36:27;;;;;;;28.43;17.93;;;8.20;99.90;;;;;;5044141;28;20456;-82
2023/02/11 09:38:56;;;;;;;22.50;16.00;;;8.30;99.90;;;;;;5043465;28;20484;-82
2023/02/11 09:41:23;;;;;;;20.40;14.70;;;8.30;99.90;;;;;;5043922;28;20448;-81
2023/02/11 09:44:03;;;;;;;23.80;15.30;;;8.30;99.90;;;;;;5045752;28;20579;-80
2023/02/11 09:46:34;;;;;;;21.80;15.63;;;8.30;99.90;;;;;;5056967;28;20498;-82
2023/02/11 09:49:03;;;;;;;24.03;15.90;;;8.30;99.90;;;;;;5057623;28;20464;-81
2023/02/11 09:51:50;;;;;;;26.60;16.07;;;8.30;99.90;;;;;;5058335;28;20535;-81
2023/02/11 09:54:25;;;;;;;26.20;15.70;;;8.30;99.90;;;;;;5060854;28;20487;-81
2023/02/11 09:56:52;;;;;;;21.83;14.20;;;8.30;99.90;;;;;;5052383;28;20479;-81
2023/02/11 09:59:19;;;;;;;19.17;14.73;;;8.30;99.90;;;;;;5044143;28;21053;-82
2023/02/11 10:02:02;;;;;;;24.57;14.60;;;8.40;99.90;;;;;;5044292;28;20455;-82
2023/02/11 10:05:08;;;;;;;23.30;15.37;;;8.40;99.90;;;;;;5042240;28;20485;-83
2023/02/11 10:07:47;;;;;;;22.77;14.17;;;8.40;99.90;;;;;;5043502;28;20937;-81
2023/02/11 10:10:33;;;;;;;20.53;14.57;;;8.40;99.90;;;;;;5043436;28;20464;-82
2023/02/11 10:13:31;;;;;;;22.43;14.67;;;8.40;99.90;;;;;;5043292;28;21201;-80
2023/02/11 10:16:25;;;;;;;22.70;16.10;;;8.40;99.90;;;;;;5046603;28;20785;-82
2023/02/11 10:19:29;;;;;;;23.00;14.93;;;8.40;99.90;;;;;;5047166;28;20459;-82
2023/02/11 10:22:29;;;;;;;21.90;17.23;;;8.40;99.90;;;;;;5042250;28;20538;-81
2023/02/11 10:24:58;;;;;;;23.23;15.43;;;8.50;99.90;;;;;;5043796;28;21291;-81
2023/02/11 10:27:33;;;;;;;24.80;15.70;;;8.50;99.90;;;;;;5041515;28;20468;-81
2023/02/11 10:30:36;;;;;;;23.67;16.30;;;8.50;99.90;;;;;;5044185;28;20457;-82
2023/02/11 10:33:23;;;;;;;19.83;13.30;;;8.50;99.90;;;;;;5043919;28;20476;-81
2023/02/11 10:35:50;;;;;;;21.23;14.40;;;8.50;99.90;;;;;;5047994;28;21518;-81
2023/02/11 10:38:17;;;;;;;19.60;13.40;;;8.50;99.90;;;;;;5043911;28;20817;-81
2023/02/11 10:40:44;;;;;;;24.53;15.97;;;8.50;99.90;;;;;;5045037;28;20455;-79
2023/02/11 10:43:14;;;;;;;24.90;14.77;;;8.50;99.90;;;;;;5046444;28;20522;-80
2023/02/11 10:45:50;;;;;;;20.63;12.80;;;8.40;99.90;;;;;;5044992;28;20463;-82
2023/02/11 10:48:36;;;;;;;20.67;15.53;;;8.50;99.90;;;;;;5048518;28;20451;-78
2023/02/11 10:51:09;;;;;;;25.23;14.70;;;8.50;99.90;;;;;;5065375;28;20454;-83
2023/02/11 10:53:39;;;;;;;21.33;15.30;;;8.50;99.90;;;;;;5050763;28;20529;-81
2023/02/11 10:56:09;;;;;;;21.97;14.20;;;8.50;99.90;;;;;;5050088;28;20984;-83
2023/02/11 10:58:43;;;;;;;24.40;15.13;;;8.50;99.90;;;;;;5047195;28;22117;-82
2023/02/11 11:01:12;;;;;;;21.83;14.67;;;8.50;99.90;;;;;;5046162;28;20517;-81
2023/02/11 11:03:51;;;;;;;28.30;19.47;;;8.60;99.90;;;;;;5045820;28;20482;-80
2023/02/11 11:06:31;;;;;;;24.77;14.93;;;8.60;99.90;;;;;;5052193;28;20456;-83
2023/02/11 11:08:58;;;;;;;26.73;16.30;;;8.60;99.90;;;;;;5068583;28;20666;-82
2023/02/11 11:11:26;;;;;;;24.30;15.77;;;8.60;99.90;;;;;;5054435;28;20448;-82
2023/02/11 11:13:57;;;;;;;24.67;15.80;;;8.70;99.90;;;;;;5048214;28;20479;-81
2023/02/11 11:16:25;;;;;;;21.37;14.53;;;8.60;99.90;;;;;;5050109;28;20455;-81
2023/02/11 11:19:22;;;;;;;20.03;14.60;;;8.70;99.90;;;;;;5048734;28;21055;-81
2023/02/11 11:21:55;;;;;;;21.23;14.37;;;8.70;99.90;;;;;;5045810;28;20483;-80
2023/02/11 11:24:25;;;;;;;19.70;14.13;;;8.70;99.90;;;;;;5049002;28;20490;-81
2023/02/11 11:26:56;;;;;;;22.87;15.37;;;8.70;99.90;;;;;;5044423;28;20460;-79
2023/02/11 11:29:29;;;;;;;20.60;15.20;;;8.60;99.90;;;;;;5048519;28;20491;-79
2023/02/11 11:32:03;;;;;;;25.47;15.80;;;8.60;99.90;;;;;;5007745;28;20463;-81
2023/02/11 11:34:36;;;;;;;23.90;14.80;;;8.60;99.90;;;;;;5053084;28;20590;-80
2023/02/11 11:37:11;;;;;;;22.10;15.50;;;8.60;99.90;;;;;;5077220;28;20478;-82
2023/02/11 11:39:38;;;;;;;24.40;14.93;;;8.70;99.90;;;;;;5066978;28;20738;-82
2023/02/11 11:42:27;;;;;;;25.50;15.67;;;8.70;99.90;;;;;;5055539;28;20445;-81
2023/02/11 11:45:14;;;;;;;24.03;15.20;;;8.70;99.90;;;;;;5057098;28;20487;-80
2023/02/11 11:47:49;;;;;;;23.07;14.97;;;8.70;99.90;;;;;;5053663;28;20533;-81
2023/02/11 11:50:42;;;;;;;21.60;14.60;;;8.70;99.90;;;;;;5051010;28;20475;-80
2023/02/11 11:53:39;;;;;;;19.43;13.67;;;8.80;99.90;;;;;;5054019;28;20472;-82
2023/02/11 11:56:13;;;;;;;22.10;14.87;;;8.80;99.90;;;;;;5041866;28;20464;-81
2023/02/11 11:58:40;;;;;;;22.03;14.83;;;8.80;99.90;;;;;;5040767;28;20460;-81
2023/02/11 12:01:13;;;;;;;20.20;13.70;;;8.80;99.90;;;;;;5013393;28;20456;-80
2023/02/11 12:04:00;;;;;;;23.73;15.37;;;8.80;99.90;;;;;;5036295;28;20478;-81
2023/02/11 12:06:42;;;;;;;22.50;14.67;;;8.80;99.90;;;;;;5042210;28;20468;-82
2023/02/11 12:09:28;;;;;;;24.63;15.87;;;8.80;99.90;;;;;;5041333;28;20976;-81
2023/02/11 12:12:20;;;;;;;26.83;16.83;;;8.90;99.90;;;;;;5059564;28;20582;-80
2023/02/11 12:14:58;;;;;;;22.97;15.73;;;8.90;99.90;;;;;;5047294;28;20480;-80
2023/02/11 12:17:52;;;;;;;24.23;15.53;;;9.00;99.90;;;;;;5044369;28;20520;-82
2023/02/11 12:20:48;;;;;;;20.57;14.60;;;8.90;99.90;;;;;;5046081;28;20464;-80
2023/02/11 12:23:25;;;;;;;23.40;15.70;;;8.90;99.90;;;;;;5042526;28;20544;-80
2023/02/11 12:25:57;;;;;;;21.73;16.10;;;8.80;99.90;;;;;;5059372;28;20463;-81
2023/02/11 12:29:00;;;;;;;23.13;16.30;;;8.80;99.90;;;;;;5057075;28;20483;-81
2023/02/11 12:31:46;;;;;;;23.27;15.23;;;8.80;99.90;;;;;;5044623;28;20443;-80
2023/02/11 12:34:12;;;;;;;24.13;17.33;;;8.80;99.90;;;;;;5043309;28;21492;-80
2023/02/11 12:36:45;;;;;;;26.40;16.80;;;8.80;99.90;;;;;;5041691;28;20535;-81
2023/02/11 12:39:38;;;;;;;23.50;15.97;;;8.90;99.90;;;;;;5043189;28;20464;-81
2023/02/11 12:45:26;;;;;;;24.60;15.93;;;8.90;99.90;;;;;;5046056;28;20486;-80
2023/02/11 12:48:21;;;;;;;27.00;15.63;;;8.90;99.90;;;;;;5047891;28;20463;-81
2023/02/11 12:51:38;;;;;;;25.57;16.60;;;8.90;99.90;;;;;;5044710;28;20547;-81
2023/02/11 12:54:29;;;;;;;25.17;16.80;;;8.90;99.90;;;;;;5012180;28;20480;-79
2023/02/11 12:57:26;;;;;;;24.30;16.73;;;8.90;99.90;;;;;;5063117;28;20522;-80
2023/02/11 13:00:03;;;;;;;29.63;17.37;;;8.90;99.90;;;;;;5043804;28;20581;-82
2023/02/11 13:02:50;;;;;;;28.10;16.97;;;8.90;99.90;;;;;;5043063;28;20447;-81
2023/02/11 13:05:41;;;;;;;30.47;18.20;;;9.00;99.90;;;;;;5041122;28;20496;-81
2023/02/11 13:08:18;;;;;;;28.47;17.53;;;9.00;99.90;;;;;;5039095;28;21234;-81
2023/02/11 13:10:57;;;;;;;28.50;17.27;;;9.00;99.90;;;;;;5038335;28;20455;-80